createdAt,value
2022-09-26T00:01:43.292Z,98813.00
2022-09-26T00:04:22.332Z,98800.00
2022-09-26T00:06:54.629Z,98801.00
2022-09-26T00:09:25.156Z,98806.00
2022-09-26T00:11:53.247Z,98807.00
2022-09-26T00:14:25.303Z,98798.00
2022-09-26T00:16:53.604Z,98807.00
2022-09-26T00:19:22.281Z,98812.00
2022-09-26T00:21:50.149Z,98810.00
2022-09-26T00:24:19.646Z,98811.00
2022-09-26T00:26:47.508Z,98809.00
2022-09-26T00:29:16.025Z,98818.00
2022-09-26T00:31:47.463Z,98816.00
2022-09-26T00:34:18.410Z,98811.00
2022-09-26T00:36:46.371Z,98803.00
2022-09-26T00:39:17.730Z,98802.00
2022-09-26T00:41:47.005Z,98811.00
2022-09-26T00:44:42.976Z,98813.00
2022-09-26T00:47:27.419Z,98812.00
2022-09-26T00:50:02.640Z,98808.00
2022-09-26T00:52:37.023Z,98804.00
2022-09-26T00:55:11.446Z,98798.00
2022-09-26T00:57:46.707Z,98796.00
2022-09-26T01:00:15.880Z,98803.00
2022-09-26T01:02:47.755Z,98792.00
2022-09-26T01:05:21.163Z,98803.00
2022-09-26T01:07:50.809Z,98800.00
2022-09-26T01:10:19.531Z,98781.00
2022-09-26T01:12:48.720Z,98791.00
2022-09-26T01:15:16.780Z,98788.00
2022-09-26T01:17:46.671Z,98783.00
2022-09-26T01:20:36.895Z,98781.00
2022-09-26T01:23:51.404Z,98779.00
2022-09-26T01:26:50.188Z,98780.00
2022-09-26T01:30:02.688Z,98781.00
2022-09-26T01:33:09.959Z,98779.00
2022-09-26T01:36:11.878Z,98771.00
2022-09-26T01:38:56.382Z,98772.00
2022-09-26T01:41:39.791Z,98764.00
2022-09-26T01:44:27.338Z,98767.00
2022-09-26T01:47:01.775Z,98758.00
2022-09-26T01:49:38.543Z,98767.00
2022-09-26T01:52:16.736Z,98762.00
2022-09-26T01:54:50.784Z,98761.00
2022-09-26T01:57:25.380Z,98766.00
2022-09-26T02:00:00.570Z,98764.00
2022-09-26T02:02:34.997Z,98748.00
2022-09-26T02:05:13.047Z,98750.00
2022-09-26T02:07:48.275Z,98745.00
2022-09-26T02:14:28.605Z,98740.00
2022-09-26T02:17:02.959Z,98736.00
2022-09-26T02:19:39.083Z,98737.00
2022-09-26T02:22:08.427Z,98732.00
2022-09-26T02:24:36.679Z,98736.00
2022-09-26T02:27:06.798Z,98727.00
2022-09-26T02:29:35.467Z,98734.00
2022-09-26T02:32:12.992Z,98724.00
2022-09-26T02:34:43.033Z,98720.00
2022-09-26T02:37:13.502Z,98725.00
2022-09-26T02:39:43.092Z,98721.00
2022-09-26T02:42:28.279Z,98723.00
2022-09-26T02:45:25.436Z,98732.00
2022-09-26T02:48:27.405Z,98722.00
2022-09-26T02:51:14.296Z,98720.00
2022-09-26T02:54:05.125Z,98714.00
2022-09-26T02:56:58.929Z,98712.00
2022-09-26T02:59:41.934Z,98715.00
2022-09-26T03:02:18.270Z,98715.00
2022-09-26T03:05:07.033Z,98710.00
2022-09-26T03:07:42.428Z,98710.00
2022-09-26T03:10:15.320Z,98705.00
2022-09-26T03:12:45.997Z,98713.00
2022-09-26T03:15:15.807Z,98711.00
2022-09-26T03:17:49.363Z,98714.00
2022-09-26T03:20:22.657Z,98708.00
2022-09-26T03:22:53.754Z,98712.00
2022-09-26T03:25:28.315Z,98711.00
2022-09-26T03:28:05.643Z,98708.00
2022-09-26T03:30:34.359Z,98711.00
2022-09-26T03:33:21.377Z,98708.00
2022-09-26T03:35:50.068Z,98712.00
2022-09-26T03:38:18.117Z,98703.00
2022-09-26T03:40:55.033Z,98706.00
2022-09-26T03:43:43.662Z,98702.00
2022-09-26T03:46:13.196Z,98704.00
2022-09-26T03:48:41.197Z,98703.00
2022-09-26T03:51:13.102Z,98692.00
2022-09-26T03:53:43.933Z,98697.00
2022-09-26T03:56:19.722Z,98691.00
2022-09-26T03:58:49.850Z,98684.00
2022-09-26T04:01:22.088Z,98683.00
2022-09-26T04:03:51.605Z,98684.00
2022-09-26T04:06:21.183Z,98680.00
2022-09-26T04:08:53.382Z,98690.00
2022-09-26T04:11:25.217Z,98694.00
2022-09-26T04:13:54.304Z,98681.00
2022-09-26T04:16:27.375Z,98680.00
2022-09-26T04:19:04.582Z,98673.00
2022-09-26T04:21:33.147Z,98676.00
2022-09-26T04:24:01.193Z,98674.00
2022-09-26T04:26:30.542Z,98677.00
2022-09-26T04:28:59.531Z,98673.00
2022-09-26T04:31:51.213Z,98666.00
2022-09-26T04:34:27.286Z,98668.00
2022-09-26T04:36:57.190Z,98665.00
2022-09-26T04:39:26.245Z,98660.00
2022-09-26T04:41:55.672Z,98665.00
2022-09-26T04:44:23.647Z,98665.00
2022-09-26T04:46:51.643Z,98664.00
2022-09-26T04:49:23.649Z,98665.00
2022-09-26T04:51:52.037Z,98659.00
2022-09-26T04:54:20.451Z,98661.00
2022-09-26T04:56:48.349Z,98653.00
2022-09-26T04:59:17.573Z,98656.00
2022-09-26T05:01:54.073Z,98660.00
2022-09-26T05:04:33.328Z,98664.00
2022-09-26T05:07:01.375Z,98659.00
2022-09-26T05:09:35.717Z,98659.00
2022-09-26T05:12:07.849Z,98653.00
2022-09-26T05:14:39.186Z,98656.00
2022-09-26T05:17:07.091Z,98659.00
2022-09-26T05:19:35.201Z,98656.00
2022-09-26T05:22:23.352Z,98654.00
2022-09-26T05:25:08.693Z,98648.00
2022-09-26T05:27:38.153Z,98649.00
2022-09-26T05:30:09.028Z,98652.00
2022-09-26T05:32:36.873Z,98656.00
2022-09-26T05:35:06.622Z,98647.00
2022-09-26T05:37:39.761Z,98642.00
2022-09-26T05:40:26.391Z,98647.00
2022-09-26T05:43:01.801Z,98648.00
2022-09-26T05:45:31.759Z,98643.00
2022-09-26T05:48:03.020Z,98637.00
2022-09-26T05:50:31.303Z,98641.00
2022-09-26T05:53:00.122Z,98642.00
2022-09-26T05:55:31.062Z,98650.00
2022-09-26T05:58:18.735Z,98642.00
2022-09-26T06:01:26.132Z,98637.00
2022-09-26T06:04:05.396Z,98639.00
2022-09-26T06:06:44.207Z,98637.00
2022-09-26T06:09:16.587Z,98653.00
2022-09-26T06:11:53.643Z,98638.00
2022-09-26T06:14:26.590Z,98634.00
2022-09-26T06:16:56.374Z,98640.00
2022-09-26T06:19:24.835Z,98649.00
2022-09-26T06:21:53.555Z,98641.00
2022-09-26T06:24:22.775Z,98636.00
2022-09-26T06:26:54.046Z,98635.00
2022-09-26T06:29:21.921Z,98631.00
2022-09-26T06:31:50.465Z,98616.00
2022-09-26T06:34:48.432Z,98632.00
2022-09-26T06:37:43.043Z,98632.00
2022-09-26T06:40:12.393Z,98637.00
2022-09-26T06:42:41.572Z,98630.00
2022-09-26T06:45:26.539Z,98626.00
2022-09-26T06:48:13.189Z,98614.00
2022-09-26T06:51:00.569Z,98616.00
2022-09-26T06:53:31.773Z,98622.00
2022-09-26T06:56:00.710Z,98614.00
2022-09-26T06:58:29.459Z,98620.00
2022-09-26T07:01:02.018Z,98618.00
2022-09-26T07:03:49.124Z,98608.00
2022-09-26T07:06:44.835Z,98611.00
2022-09-26T07:09:14.133Z,98616.00
2022-09-26T07:12:14.688Z,98618.00
2022-09-26T07:14:44.316Z,98622.00
2022-09-26T07:17:21.217Z,98616.00
2022-09-26T07:20:10.876Z,98615.00
2022-09-26T07:22:58.804Z,98616.00
2022-09-26T07:25:26.875Z,98613.00
2022-09-26T07:27:55.251Z,98614.00
2022-09-26T07:30:32.666Z,98616.00
2022-09-26T07:33:07.714Z,98615.00
2022-09-26T07:35:45.104Z,98612.00
2022-09-26T07:38:14.770Z,98618.00
2022-09-26T07:40:43.798Z,98607.00
2022-09-26T07:43:20.637Z,98610.00
2022-09-26T07:46:12.037Z,98608.00
2022-09-26T07:49:00.603Z,98608.00
2022-09-26T07:51:48.263Z,98603.00
2022-09-26T07:54:21.467Z,98606.00
2022-09-26T07:57:15.562Z,98601.00
2022-09-26T07:59:54.447Z,98598.00
2022-09-26T08:02:45.241Z,98596.00
2022-09-26T08:05:19.783Z,98591.00
2022-09-26T08:07:49.577Z,98594.00
2022-09-26T08:10:38.942Z,98591.00
2022-09-26T08:13:27.710Z,98599.00
2022-09-26T08:16:20.586Z,98602.00
2022-09-26T08:18:48.606Z,98598.00
2022-09-26T08:21:16.609Z,98604.00
2022-09-26T08:23:45.246Z,98606.00
2022-09-26T08:26:44.786Z,98604.00
2022-09-26T08:29:30.925Z,98600.00
2022-09-26T08:32:02.148Z,98604.00
2022-09-26T08:34:32.114Z,98599.00
2022-09-26T08:37:27.771Z,98603.00
2022-09-26T08:40:14.926Z,98604.00
2022-09-26T08:43:37.467Z,98597.00
2022-09-26T08:46:49.307Z,98590.00
2022-09-26T08:49:43.973Z,98589.00
2022-09-26T08:52:28.956Z,98594.00
2022-09-26T08:55:00.361Z,98581.00
2022-09-26T08:57:39.154Z,98584.00
2022-09-26T09:00:20.001Z,98589.00
2022-09-26T09:03:06.972Z,98584.00
2022-09-26T09:05:39.150Z,98572.00
2022-09-26T09:08:16.310Z,98580.00
2022-09-26T09:11:11.369Z,98578.00
2022-09-26T09:14:02.539Z,98573.00
2022-09-26T09:17:10.727Z,98573.00
2022-09-26T09:20:17.004Z,98563.00
2022-09-26T09:23:33.797Z,98564.00
2022-09-26T09:29:30.590Z,98555.00
2022-09-26T09:32:47.981Z,98559.00
2022-09-26T09:35:43.300Z,98564.00
2022-09-26T09:38:20.429Z,98557.00
2022-09-26T09:41:06.775Z,98549.00
2022-09-26T09:43:42.930Z,98544.00
2022-09-26T09:46:19.256Z,98544.00
2022-09-26T09:48:51.368Z,98549.00
2022-09-26T09:51:39.430Z,98542.00
2022-09-26T09:54:29.132Z,98537.00
2022-09-26T09:57:33.093Z,98540.00
2022-09-26T10:00:12.492Z,98541.00
2022-09-26T10:02:52.651Z,98536.00
2022-09-26T10:05:37.447Z,98541.00
2022-09-26T10:08:13.122Z,98536.00
2022-09-26T10:11:16.931Z,98530.00
2022-09-26T10:14:17.342Z,98524.00
2022-09-26T10:17:20.966Z,98518.00
2022-09-26T10:20:05.017Z,98509.00
2022-09-26T10:22:45.483Z,98509.00
2022-09-26T10:25:26.645Z,98506.00
2022-09-26T10:27:59.279Z,98506.00
2022-09-26T10:30:33.606Z,98504.00
2022-09-26T10:33:06.409Z,98493.00
2022-09-26T10:35:45.972Z,98495.00
2022-09-26T10:38:24.537Z,98496.00
2022-09-26T10:41:01.273Z,98505.00
2022-09-26T10:43:38.005Z,98494.00
2022-09-26T10:46:24.690Z,98484.00
2022-09-26T10:49:39.890Z,98485.00
2022-09-26T10:52:31.044Z,98481.00
2022-09-26T10:55:07.088Z,98477.00
2022-09-26T10:57:45.346Z,98484.00
2022-09-26T11:00:22.160Z,98477.00
2022-09-26T11:02:53.224Z,98477.00
2022-09-26T11:05:51.290Z,98477.00
2022-09-26T11:08:29.814Z,98467.00
2022-09-26T11:11:27.446Z,98460.00
2022-09-26T11:14:05.236Z,98462.00
2022-09-26T11:16:53.986Z,98465.00
2022-09-26T11:19:37.323Z,98458.00
2022-09-26T11:22:15.250Z,98457.00
2022-09-26T11:24:55.935Z,98448.00
2022-09-26T11:27:35.222Z,98446.00
2022-09-26T11:30:12.509Z,98443.00
2022-09-26T11:32:51.551Z,98441.00
2022-09-26T11:35:51.652Z,98436.00
2022-09-26T11:38:39.255Z,98432.00
2022-09-26T11:41:36.693Z,98432.00
2022-09-26T11:44:43.495Z,98436.00
2022-09-26T11:47:55.443Z,98434.00
2022-09-26T11:50:50.008Z,98426.00
2022-09-26T11:54:04.137Z,98426.00
2022-09-26T11:56:55.102Z,98428.00
2022-09-26T12:00:06.206Z,98418.00
2022-09-26T12:03:11.461Z,98411.00
2022-09-26T12:05:53.445Z,98414.00
2022-09-26T12:08:38.302Z,98412.00
2022-09-26T12:11:19.602Z,98404.00
2022-09-26T12:13:57.430Z,98399.00
2022-09-26T12:16:37.285Z,98400.00
2022-09-26T12:19:20.953Z,98395.00
2022-09-26T12:22:19.832Z,98392.00
2022-09-26T12:24:59.804Z,98385.00
2022-09-26T12:27:42.341Z,98386.00
2022-09-26T12:30:15.226Z,98379.00
2022-09-26T12:33:10.354Z,98377.00
2022-09-26T12:35:56.898Z,98379.00
2022-09-26T12:39:01.357Z,98381.00
2022-09-26T12:42:00.861Z,98372.00
2022-09-26T12:45:00.672Z,98370.00
2022-09-26T12:47:59.625Z,98362.00
2022-09-26T12:50:39.888Z,98360.00
2022-09-26T12:53:46.814Z,98367.00
2022-09-26T12:56:23.346Z,98367.00
2022-09-26T12:59:12.742Z,98357.00
2022-09-26T13:02:03.885Z,98358.00
2022-09-26T13:05:16.890Z,98353.00
2022-09-26T13:08:03.505Z,98357.00
2022-09-26T13:10:47.261Z,98336.00
2022-09-26T13:14:07.944Z,98346.00
2022-09-26T13:16:56.075Z,98336.00
2022-09-26T13:19:34.519Z,98329.00
2022-09-26T13:22:13.449Z,98336.00
2022-09-26T13:24:53.032Z,98320.00
2022-09-26T13:27:28.596Z,98316.00
2022-09-26T13:30:04.967Z,98320.00
2022-09-26T13:32:45.013Z,98308.00
2022-09-26T13:35:20.853Z,98319.00
2022-09-26T13:38:09.173Z,98315.00
2022-09-26T13:40:47.684Z,98306.00
2022-09-26T13:43:30.489Z,98307.00
2022-09-26T13:46:10.593Z,98310.00
2022-09-26T13:48:51.845Z,98306.00
2022-09-26T13:51:26.885Z,98304.00
2022-09-26T13:54:10.504Z,98309.00
2022-09-26T13:56:49.458Z,98306.00
2022-09-26T13:59:34.460Z,98303.00
2022-09-26T14:02:24.768Z,98300.00
2022-09-26T14:04:54.626Z,98296.00
2022-09-26T14:08:04.554Z,98292.00
2022-09-26T14:10:38.913Z,98282.00
2022-09-26T14:13:21.789Z,98300.00
2022-09-26T14:16:04.911Z,98284.00
2022-09-26T14:19:09.231Z,98283.00
2022-09-26T14:21:46.350Z,98287.00
2022-09-26T14:24:38.065Z,98279.00
2022-09-26T14:27:44.191Z,98272.00
2022-09-26T14:30:29.563Z,98269.00
2022-09-26T14:33:03.472Z,98274.00
2022-09-26T14:35:35.143Z,98265.00
2022-09-26T14:38:10.075Z,98268.00
2022-09-26T14:40:38.903Z,98271.00
2022-09-26T14:43:14.539Z,98263.00
2022-09-26T14:45:49.988Z,98260.00
2022-09-26T14:48:33.459Z,98256.00
2022-09-26T14:51:05.938Z,98258.00
2022-09-26T14:53:41.977Z,98251.00
2022-09-26T14:56:16.413Z,98259.00
2022-09-26T14:58:51.364Z,98250.00
2022-09-26T15:01:29.353Z,98249.00
2022-09-26T15:04:03.499Z,98229.00
2022-09-26T15:06:46.827Z,98233.00
2022-09-26T15:09:23.538Z,98227.00
2022-09-26T15:11:59.241Z,98235.00
2022-09-26T15:14:38.463Z,98230.00
2022-09-26T15:17:17.522Z,98229.00
2022-09-26T15:19:53.053Z,98223.00
2022-09-26T15:22:25.614Z,98222.00
2022-09-26T15:24:54.906Z,98218.00
2022-09-26T15:27:27.309Z,98220.00
2022-09-26T15:30:03.776Z,98219.00
2022-09-26T15:32:34.726Z,98214.00
2022-09-26T15:35:04.388Z,98215.00
2022-09-26T15:37:36.077Z,98213.00
2022-09-26T15:40:17.878Z,98208.00
2022-09-26T15:43:02.425Z,98205.00
2022-09-26T15:45:33.957Z,98204.00
2022-09-26T15:48:06.050Z,98193.00
2022-09-26T15:50:43.804Z,98198.00
2022-09-26T15:53:26.338Z,98196.00
2022-09-26T15:56:01.261Z,98194.00
2022-09-26T15:58:39.582Z,98198.00
2022-09-26T16:01:08.844Z,98203.00
2022-09-26T16:03:47.435Z,98193.00
2022-09-26T16:06:35.353Z,98192.00
2022-09-26T16:09:10.155Z,98190.00
2022-09-26T16:11:47.497Z,98195.00
2022-09-26T16:14:26.862Z,98188.00
2022-09-26T16:17:02.152Z,98188.00
2022-09-26T16:19:36.189Z,98190.00
2022-09-26T16:22:41.079Z,98195.00
2022-09-26T16:25:54.716Z,98193.00
2022-09-26T16:28:43.308Z,98203.00
2022-09-26T16:31:34.369Z,98205.00
2022-09-26T16:34:03.186Z,98180.00
2022-09-26T16:36:35.270Z,98189.00
2022-09-26T16:39:07.157Z,98195.00
2022-09-26T16:44:35.506Z,98180.00
2022-09-26T16:47:08.901Z,98172.00
2022-09-26T16:49:46.754Z,98173.00
2022-09-26T16:52:31.014Z,98176.00
2022-09-26T16:55:01.229Z,98175.00
2022-09-26T16:57:33.195Z,98170.00
2022-09-26T17:00:24.419Z,98169.00
2022-09-26T17:02:52.348Z,98168.00
2022-09-26T17:05:22.489Z,98168.00
2022-09-26T17:07:51.841Z,98163.00
2022-09-26T17:10:23.941Z,98156.00
2022-09-26T17:12:53.210Z,98156.00
2022-09-26T17:15:27.846Z,98154.00
2022-09-26T17:17:57.019Z,98155.00
2022-09-26T17:20:25.729Z,98151.00
2022-09-26T17:22:55.635Z,98153.00
2022-09-26T17:25:25.474Z,98137.00
2022-09-26T17:27:59.606Z,98140.00
2022-09-26T17:30:27.765Z,98146.00
2022-09-26T17:32:56.052Z,98145.00
2022-09-26T17:35:27.641Z,98144.00
2022-09-26T17:37:57.528Z,98144.00
2022-09-26T17:40:27.985Z,98139.00
2022-09-26T17:42:59.746Z,98146.00
2022-09-26T17:45:31.102Z,98145.00
2022-09-26T17:48:03.725Z,98149.00
2022-09-26T17:50:33.771Z,98138.00
2022-09-26T17:53:04.155Z,98143.00
2022-09-26T17:55:33.463Z,98138.00
2022-09-26T17:58:02.314Z,98136.00
2022-09-26T18:00:40.335Z,98133.00
2022-09-26T18:03:19.034Z,98139.00
2022-09-26T18:05:47.622Z,98136.00
2022-09-26T18:08:22.499Z,98137.00
2022-09-26T18:10:56.901Z,98128.00
2022-09-26T18:13:31.525Z,98128.00
2022-09-26T18:16:00.051Z,98128.00
2022-09-26T18:18:31.877Z,98115.00
2022-09-26T18:21:03.901Z,98123.00
2022-09-26T18:23:42.396Z,98117.00
2022-09-26T18:26:17.874Z,98117.00
2022-09-26T18:28:45.853Z,98123.00
2022-09-26T18:31:13.989Z,98112.00
2022-09-26T18:33:41.959Z,98109.00
2022-09-26T18:36:12.730Z,98108.00
2022-09-26T18:38:41.934Z,98098.00
2022-09-26T18:41:12.106Z,98099.00
2022-09-26T18:43:42.428Z,98096.00
2022-09-26T18:46:13.728Z,98094.00
2022-09-26T18:48:41.882Z,98096.00
2022-09-26T18:51:11.658Z,98103.00
2022-09-26T18:53:41.326Z,98098.00
2022-09-26T18:56:28.557Z,98092.00
2022-09-26T18:58:57.543Z,98098.00
2022-09-26T19:01:30.963Z,98092.00
2022-09-26T19:04:02.672Z,98094.00
2022-09-26T19:06:35.453Z,98090.00
2022-09-26T19:09:08.257Z,98101.00
2022-09-26T19:11:36.217Z,98093.00
2022-09-26T19:14:14.226Z,98100.00
2022-09-26T19:16:42.645Z,98093.00
2022-09-26T19:19:10.748Z,98092.00
2022-09-26T19:21:41.419Z,98091.00
2022-09-26T19:24:20.444Z,98094.00
2022-09-26T19:26:52.430Z,98096.00
2022-09-26T19:29:33.687Z,98083.00
2022-09-26T19:32:02.798Z,98086.00
2022-09-26T19:34:32.916Z,98084.00
2022-09-26T19:37:03.030Z,98081.00
2022-09-26T19:39:32.730Z,98078.00
2022-09-26T19:42:01.554Z,98079.00
2022-09-26T19:44:29.552Z,98063.00
2022-09-26T19:46:59.739Z,98071.00
2022-09-26T19:49:31.180Z,98067.00
2022-09-26T19:52:01.009Z,98061.00
2022-09-26T19:54:29.910Z,98063.00
2022-09-26T19:56:59.438Z,98062.00
2022-09-26T19:59:27.918Z,98063.00
2022-09-26T20:01:56.323Z,98064.00
2022-09-26T20:04:24.288Z,98059.00
2022-09-26T20:06:53.002Z,98058.00
2022-09-26T20:09:21.274Z,98053.00
2022-09-26T20:11:49.548Z,98058.00
2022-09-26T20:14:24.599Z,98058.00
2022-09-26T20:16:59.178Z,98052.00
2022-09-26T20:19:33.342Z,98064.00
2022-09-26T20:22:04.090Z,98058.00
2022-09-26T20:24:34.313Z,98058.00
2022-09-26T20:27:06.925Z,98048.00
2022-09-26T20:29:56.942Z,98048.00
2022-09-26T20:32:24.923Z,98038.00
2022-09-26T20:34:53.009Z,98040.00
2022-09-26T20:37:23.693Z,98031.00
2022-09-26T20:39:52.548Z,98033.00
2022-09-26T20:42:22.018Z,98018.00
2022-09-26T20:44:51.361Z,98024.00
2022-09-26T20:47:21.304Z,98023.00
2022-09-26T20:49:54.774Z,98018.00
2022-09-26T20:52:26.639Z,98014.00
2022-09-26T20:54:55.863Z,98010.00
2022-09-26T20:57:24.398Z,98010.00
2022-09-26T20:59:53.615Z,98002.00
2022-09-26T21:02:28.886Z,98000.00
2022-09-26T21:04:58.293Z,98006.00
2022-09-26T21:07:26.251Z,98002.00
2022-09-26T21:09:54.143Z,97993.00
2022-09-26T21:12:22.136Z,97995.00
2022-09-26T21:14:50.087Z,97989.00
2022-09-26T21:17:23.920Z,97984.00
2022-09-26T21:19:52.173Z,97978.00
2022-09-26T21:22:43.593Z,97978.00
2022-09-26T21:25:17.355Z,97966.00
2022-09-26T21:27:46.514Z,97963.00
2022-09-26T21:30:15.872Z,97947.00
2022-09-26T21:32:51.148Z,97947.00
2022-09-26T21:35:22.511Z,97945.00
2022-09-26T21:37:53.900Z,97940.00
2022-09-26T21:40:26.854Z,97938.00
2022-09-26T21:43:00.148Z,97938.00
2022-09-26T21:45:28.025Z,97933.00
2022-09-26T21:47:58.713Z,97937.00
2022-09-26T21:50:28.958Z,97937.00
2022-09-26T21:53:03.904Z,97926.00
2022-09-26T21:55:38.671Z,97924.00
2022-09-26T21:58:13.552Z,97925.00
2022-09-26T22:00:41.784Z,97916.00
2022-09-26T22:03:11.102Z,97915.00
2022-09-26T22:05:38.989Z,97908.00
2022-09-26T22:08:06.951Z,97900.00
2022-09-26T22:10:34.927Z,97889.00
2022-09-26T22:13:02.846Z,97899.00
2022-09-26T22:15:30.816Z,97884.00
2022-09-26T22:17:58.694Z,97884.00
2022-09-26T22:20:27.869Z,97883.00
2022-09-26T22:22:55.789Z,97873.00
2022-09-26T22:25:23.633Z,97868.00
2022-09-26T22:27:51.551Z,97869.00
2022-09-26T22:30:19.557Z,97868.00
2022-09-26T22:32:47.452Z,97851.00
2022-09-26T22:35:15.684Z,97848.00
2022-09-26T22:37:45.263Z,97845.00
2022-09-26T22:40:13.172Z,97846.00
2022-09-26T22:42:41.106Z,97849.00
2022-09-26T22:45:10.702Z,97835.00
2022-09-26T22:47:38.550Z,97835.00
2022-09-26T22:50:07.345Z,97830.00
2022-09-26T22:52:35.178Z,97829.00
2022-09-26T22:55:05.340Z,97827.00
2022-09-26T22:57:33.234Z,97820.00
2022-09-26T23:00:01.825Z,97818.00
2022-09-26T23:02:29.859Z,97816.00
2022-09-26T23:04:57.738Z,97809.00
2022-09-26T23:07:25.598Z,97807.00
2022-09-26T23:09:53.640Z,97798.00
2022-09-26T23:12:22.817Z,97792.00
2022-09-26T23:14:51.149Z,97797.00
2022-09-26T23:17:19.115Z,97796.00
2022-09-26T23:19:47.048Z,97789.00
2022-09-26T23:22:15.348Z,97781.00
2022-09-26T23:24:43.279Z,97781.00
2022-09-26T23:27:11.210Z,97762.00
2022-09-26T23:29:41.279Z,97772.00
2022-09-26T23:32:09.300Z,97767.00
2022-09-26T23:34:37.135Z,97766.00
2022-09-26T23:37:05.001Z,97743.00
2022-09-26T23:39:32.825Z,97745.00
2022-09-26T23:42:00.766Z,97742.00
2022-09-26T23:44:28.659Z,97734.00
2022-09-26T23:46:59.928Z,97731.00
2022-09-26T23:49:27.809Z,97728.00
2022-09-26T23:51:55.718Z,97727.00
2022-09-26T23:54:23.789Z,97733.00
2022-09-26T23:56:51.658Z,97738.00
2022-09-26T23:59:19.510Z,97724.00
